createdAt,value
2023-01-27T00:00:39.483Z,12.15
2023-01-27T00:03:06.998Z,10.45
2023-01-27T00:05:34.245Z,9.65
2023-01-27T00:08:01.169Z,9.18
2023-01-27T00:10:28.166Z,11.13
2023-01-27T00:13:13.805Z,16.10
2023-01-27T00:15:40.855Z,8.98
2023-01-27T00:18:08.705Z,10.23
2023-01-27T00:20:54.313Z,17.80
2023-01-27T00:23:41.815Z,9.85
2023-01-27T00:26:16.796Z,16.38
2023-01-27T00:28:45.370Z,9.55
2023-01-27T00:31:33.380Z,12.90
2023-01-27T00:34:09.407Z,9.55
2023-01-27T00:36:42.055Z,10.68
2023-01-27T00:39:10.839Z,10.73
2023-01-27T00:41:39.109Z,10.65
2023-01-27T00:44:07.452Z,14.00
2023-01-27T00:46:34.901Z,15.10
2023-01-27T00:49:01.879Z,8.82
2023-01-27T00:51:28.784Z,10.77
2023-01-27T00:53:55.865Z,16.77
2023-01-27T00:56:22.864Z,21.73
2023-01-27T00:58:49.820Z,14.90
2023-01-27T01:01:17.595Z,13.02
2023-01-27T01:03:46.014Z,8.43
2023-01-27T01:06:15.479Z,13.15
2023-01-27T01:08:43.514Z,9.10
2023-01-27T01:11:14.181Z,4.18
2023-01-27T01:13:42.496Z,7.65
2023-01-27T01:16:12.457Z,15.57
2023-01-27T01:18:39.868Z,12.25
2023-01-27T01:21:07.254Z,9.43
2023-01-27T01:23:35.339Z,16.90
2023-01-27T01:26:02.307Z,10.50
2023-01-27T01:28:29.358Z,7.45
2023-01-27T01:30:56.891Z,13.00
2023-01-27T01:33:23.928Z,10.32
2023-01-27T01:35:50.887Z,8.70
2023-01-27T01:38:17.783Z,12.57
2023-01-27T01:40:45.261Z,13.75
2023-01-27T01:43:17.373Z,12.68
2023-01-27T01:45:51.506Z,14.38
2023-01-27T01:48:24.464Z,8.82
2023-01-27T01:51:20.472Z,10.18
2023-01-27T01:54:12.141Z,7.72
2023-01-27T01:56:43.360Z,12.45
2023-01-27T01:59:16.273Z,6.22
2023-01-27T02:01:43.222Z,12.23
2023-01-27T02:04:18.183Z,10.20
2023-01-27T02:06:54.779Z,10.20
2023-01-27T02:11:50.099Z,14.45
2023-01-27T02:14:18.351Z,7.90
2023-01-27T02:16:45.418Z,10.25
2023-01-27T02:19:24.759Z,18.30
2023-01-27T02:21:55.443Z,11.13
2023-01-27T02:24:31.186Z,13.55
2023-01-27T02:27:00.685Z,5.35
2023-01-27T02:29:28.997Z,7.00
2023-01-27T02:31:55.998Z,14.77
2023-01-27T02:34:27.648Z,16.42
2023-01-27T02:36:58.465Z,15.95
2023-01-27T02:39:31.362Z,6.72
2023-01-27T02:41:59.254Z,14.45
2023-01-27T02:44:26.406Z,12.45
2023-01-27T02:46:53.345Z,8.77
2023-01-27T02:49:20.332Z,12.43
2023-01-27T02:51:47.299Z,12.88
2023-01-27T02:54:14.381Z,10.57
2023-01-27T02:56:41.976Z,10.82
2023-01-27T02:59:09.881Z,14.43
2023-01-27T03:01:39.705Z,11.57
2023-01-27T03:04:08.793Z,9.68
2023-01-27T03:06:35.850Z,11.45
2023-01-27T03:09:04.073Z,11.55
2023-01-27T03:11:49.621Z,13.45
2023-01-27T03:14:18.162Z,7.75
2023-01-27T03:17:06.063Z,11.60
2023-01-27T03:19:33.154Z,6.15
2023-01-27T03:22:01.950Z,16.40
2023-01-27T03:24:31.111Z,10.68
2023-01-27T03:27:02.529Z,16.05
2023-01-27T03:29:55.954Z,12.35
2023-01-27T03:32:25.376Z,9.20
2023-01-27T03:35:12.500Z,7.90
2023-01-27T03:37:59.671Z,9.23
2023-01-27T03:40:46.117Z,12.77
2023-01-27T03:43:31.926Z,18.52
2023-01-27T03:46:18.511Z,13.60
2023-01-27T03:48:54.205Z,10.95
2023-01-27T03:51:24.571Z,9.47
2023-01-27T03:53:51.827Z,12.43
2023-01-27T03:56:20.870Z,9.77
2023-01-27T03:58:49.566Z,10.85
2023-01-27T04:01:23.149Z,11.73
2023-01-27T04:04:10.132Z,10.65
2023-01-27T04:06:58.425Z,7.15
2023-01-27T04:09:31.255Z,9.10
2023-01-27T04:12:00.841Z,15.02
2023-01-27T04:14:32.031Z,8.60
2023-01-27T04:17:05.711Z,8.10
2023-01-27T04:19:33.781Z,12.13
2023-01-27T04:22:02.092Z,15.45
2023-01-27T04:24:29.232Z,14.38
2023-01-27T04:27:06.322Z,12.63
2023-01-27T04:29:35.328Z,17.80
2023-01-27T04:32:04.583Z,14.05
2023-01-27T04:34:31.907Z,8.55
2023-01-27T04:36:59.236Z,12.10
2023-01-27T04:39:26.530Z,15.45
2023-01-27T04:41:53.394Z,19.85
2023-01-27T04:44:23.072Z,10.75
2023-01-27T04:46:50.601Z,8.38
2023-01-27T04:49:18.506Z,12.95
2023-01-27T04:51:47.089Z,13.00
2023-01-27T04:54:15.475Z,13.07
2023-01-27T04:56:54.439Z,10.65
2023-01-27T04:59:21.381Z,16.60
2023-01-27T05:01:48.580Z,12.25
2023-01-27T05:04:15.492Z,23.50
2023-01-27T05:06:42.414Z,10.90
2023-01-27T05:09:09.345Z,11.27
2023-01-27T05:11:36.261Z,12.55
2023-01-27T05:14:03.299Z,12.57
2023-01-27T05:16:30.388Z,9.18
2023-01-27T05:18:57.543Z,13.48
2023-01-27T05:21:28.417Z,14.63
2023-01-27T05:23:55.612Z,13.90
2023-01-27T05:26:25.672Z,13.65
2023-01-27T05:28:53.534Z,12.13
2023-01-27T05:31:23.559Z,15.18
2023-01-27T05:33:55.458Z,10.93
2023-01-27T05:36:24.087Z,11.90
2023-01-27T05:38:51.156Z,8.25
2023-01-27T05:41:19.730Z,10.43
2023-01-27T05:43:47.886Z,13.82
2023-01-27T05:46:17.709Z,12.45
2023-01-27T05:48:47.104Z,16.05
2023-01-27T05:51:15.463Z,13.23
2023-01-27T05:53:43.324Z,12.68
2023-01-27T05:56:11.979Z,11.38
2023-01-27T05:58:39.788Z,11.18
2023-01-27T06:01:11.203Z,10.98
2023-01-27T06:03:39.036Z,11.30
2023-01-27T06:06:08.053Z,10.95
2023-01-27T06:08:35.539Z,11.80
2023-01-27T06:11:03.106Z,8.68
2023-01-27T06:13:30.359Z,9.93
2023-01-27T06:15:57.438Z,14.38
2023-01-27T06:18:24.759Z,9.40
2023-01-27T06:20:51.701Z,12.05
2023-01-27T06:23:18.757Z,10.65
2023-01-27T06:25:48.386Z,12.48
2023-01-27T06:28:28.150Z,12.70
2023-01-27T06:30:57.368Z,8.35
2023-01-27T06:33:24.285Z,11.75
2023-01-27T06:35:51.272Z,13.52
2023-01-27T06:38:18.211Z,10.45
2023-01-27T06:40:45.127Z,16.33
2023-01-27T06:43:14.742Z,16.20
2023-01-27T06:45:41.844Z,5.43
2023-01-27T06:48:09.165Z,15.35
2023-01-27T06:50:37.172Z,10.75
2023-01-27T06:53:06.383Z,13.70
2023-01-27T06:55:34.545Z,15.80
2023-01-27T06:58:02.564Z,10.75
2023-01-27T07:00:30.145Z,13.60
2023-01-27T07:02:57.324Z,15.40
2023-01-27T07:05:24.964Z,14.43
2023-01-27T07:07:51.889Z,17.55
2023-01-27T07:10:19.405Z,15.70
2023-01-27T07:12:46.649Z,23.52
2023-01-27T07:15:14.631Z,14.93
2023-01-27T07:17:41.612Z,18.33
2023-01-27T07:20:11.999Z,15.90
2023-01-27T07:22:39.544Z,16.85
2023-01-27T07:25:07.123Z,13.52
2023-01-27T07:27:34.038Z,12.85
2023-01-27T07:30:01.038Z,19.60
2023-01-27T07:32:28.608Z,17.25
2023-01-27T07:34:55.684Z,17.83
2023-01-27T07:37:22.622Z,18.95
2023-01-27T07:39:49.762Z,16.38
2023-01-27T07:42:16.736Z,16.95
2023-01-27T07:44:43.696Z,16.83
2023-01-27T07:47:10.618Z,17.15
2023-01-27T07:49:37.532Z,18.55
2023-01-27T07:52:04.630Z,18.45
2023-01-27T07:54:31.742Z,33.83
2023-01-27T07:57:01.749Z,21.40
2023-01-27T07:59:28.768Z,16.42
2023-01-27T08:01:55.870Z,10.30
2023-01-27T08:04:22.877Z,21.30
2023-01-27T08:06:49.955Z,15.20
2023-01-27T08:09:16.985Z,22.42
2023-01-27T08:11:43.941Z,17.25
2023-01-27T08:14:10.896Z,13.70
2023-01-27T08:16:37.848Z,19.90
2023-01-27T08:19:04.874Z,13.02
2023-01-27T08:21:33.280Z,15.10
2023-01-27T08:24:00.914Z,18.25
2023-01-27T08:26:28.441Z,16.25
2023-01-27T08:28:55.687Z,13.63
2023-01-27T08:31:22.742Z,13.32
2023-01-27T08:33:54.517Z,14.35
2023-01-27T08:36:23.404Z,23.38
2023-01-27T08:38:51.262Z,15.13
2023-01-27T08:41:21.373Z,15.30
2023-01-27T08:43:48.728Z,15.57
2023-01-27T08:46:16.039Z,14.32
2023-01-27T08:48:43.250Z,14.27
2023-01-27T08:51:13.128Z,14.70
2023-01-27T08:53:40.427Z,12.15
2023-01-27T08:56:11.252Z,12.40
2023-01-27T08:58:38.290Z,11.65
2023-01-27T09:01:07.479Z,15.70
2023-01-27T09:03:35.235Z,13.27
2023-01-27T09:06:05.325Z,18.13
2023-01-27T09:08:32.382Z,11.25
2023-01-27T09:11:00.021Z,20.25
2023-01-27T09:13:28.457Z,18.63
2023-01-27T09:15:55.716Z,18.40
2023-01-27T09:18:22.750Z,17.83
2023-01-27T09:20:49.760Z,19.55
2023-01-27T09:23:16.650Z,16.00
2023-01-27T09:25:43.815Z,13.93
2023-01-27T09:28:17.160Z,16.27
2023-01-27T09:30:48.435Z,13.02
2023-01-27T09:33:15.949Z,13.40
2023-01-27T09:35:48.878Z,13.63
2023-01-27T09:38:20.968Z,15.55
2023-01-27T09:40:47.817Z,19.30
2023-01-27T09:43:39.254Z,19.13
2023-01-27T10:18:27.513Z,6.17
2023-01-27T10:21:01.384Z,6.32
2023-01-27T10:23:57.622Z,7.00
2023-01-27T10:26:41.284Z,9.93
2023-01-27T10:29:35.333Z,5.35
2023-01-27T10:32:48.801Z,10.85
2023-01-27T10:35:25.567Z,9.23
2023-01-27T10:38:10.205Z,8.88
2023-01-27T10:40:45.950Z,10.10
2023-01-27T10:43:16.797Z,8.53
2023-01-27T10:45:50.888Z,9.85
2023-01-27T10:48:46.101Z,7.47
2023-01-27T10:51:29.024Z,12.68
2023-01-27T10:54:04.405Z,16.85
2023-01-27T10:56:46.346Z,16.50
2023-01-27T10:59:36.994Z,10.68
2023-01-27T11:02:09.670Z,10.90
2023-01-27T11:04:41.553Z,12.05
2023-01-27T11:07:15.185Z,14.35
2023-01-27T11:09:57.956Z,18.13
2023-01-27T11:12:55.909Z,16.60
2023-01-27T11:15:30.596Z,16.75
2023-01-27T11:17:59.730Z,13.35
2023-01-27T11:20:35.228Z,18.90
2023-01-27T11:23:15.000Z,16.27
2023-01-27T11:25:47.483Z,14.13
2023-01-27T11:28:51.189Z,17.15
2023-01-27T11:31:51.498Z,17.67
2023-01-27T11:34:33.677Z,17.17
2023-01-27T11:37:22.343Z,19.80
2023-01-27T11:39:49.613Z,16.77
2023-01-27T11:42:17.262Z,19.08
2023-01-27T11:44:45.641Z,13.40
2023-01-27T11:47:23.349Z,17.30
2023-01-27T11:49:52.966Z,17.42
2023-01-27T11:52:22.472Z,14.63
2023-01-27T11:55:01.882Z,19.02
2023-01-27T11:57:29.615Z,15.55
2023-01-27T12:00:29.258Z,15.32
2023-01-27T12:03:48.836Z,15.48
2023-01-27T12:06:40.919Z,17.52
2023-01-27T12:09:39.498Z,17.25
2023-01-27T12:12:11.438Z,14.82
2023-01-27T12:14:38.464Z,12.63
2023-01-27T12:17:08.136Z,17.88
2023-01-27T12:19:42.763Z,13.50
2023-01-27T12:22:31.310Z,14.75
2023-01-27T12:25:02.907Z,15.23
2023-01-27T12:27:38.668Z,13.80
2023-01-27T12:30:17.456Z,15.77
2023-01-27T12:32:47.394Z,13.30
2023-01-27T12:35:21.840Z,15.82
2023-01-27T12:37:50.303Z,14.90
2023-01-27T12:40:22.415Z,13.52
2023-01-27T12:43:02.983Z,19.52
2023-01-27T12:45:35.086Z,20.27
2023-01-27T12:48:07.725Z,19.77
2023-01-27T12:50:37.750Z,18.10
2023-01-27T12:53:06.094Z,19.50
2023-01-27T12:55:55.356Z,20.17
2023-01-27T12:58:28.232Z,18.90
2023-01-27T13:00:57.730Z,22.42
2023-01-27T13:03:25.452Z,20.92
2023-01-27T13:05:58.065Z,18.27
2023-01-27T13:08:27.978Z,13.65
2023-01-27T13:11:00.752Z,19.48
2023-01-27T13:13:30.838Z,19.65
2023-01-27T13:16:03.696Z,22.48
2023-01-27T13:18:34.906Z,20.83
2023-01-27T13:21:24.810Z,23.95
2023-01-27T13:23:54.030Z,23.38
2023-01-27T13:26:29.318Z,25.13
2023-01-27T13:29:30.576Z,19.17
2023-01-27T13:32:21.020Z,25.88
2023-01-27T13:34:57.713Z,19.05
2023-01-27T13:37:29.140Z,23.30
2023-01-27T13:40:20.767Z,24.10
2023-01-27T13:42:59.805Z,19.90
2023-01-27T13:45:43.375Z,24.08
2023-01-27T13:48:22.545Z,20.73
2023-01-27T13:51:33.716Z,16.60
2023-01-27T13:54:04.937Z,23.75
2023-01-27T13:56:58.636Z,19.98
2023-01-27T13:59:33.226Z,15.73
2023-01-27T14:02:30.493Z,20.77
2023-01-27T14:05:09.139Z,21.65
2023-01-27T14:07:38.948Z,21.33
2023-01-27T14:10:24.609Z,23.83
2023-01-27T14:13:15.321Z,14.32
2023-01-27T14:16:03.667Z,21.02
2023-01-27T14:19:17.251Z,22.25
2023-01-27T14:22:19.338Z,20.58
2023-01-27T14:24:53.257Z,15.55
2023-01-27T14:27:38.774Z,23.63
2023-01-27T14:30:20.335Z,22.52
2023-01-27T14:33:05.941Z,16.25
2023-01-27T14:35:39.006Z,22.20
2023-01-27T14:38:09.085Z,19.60
2023-01-27T14:40:38.696Z,17.65
2023-01-27T14:43:36.617Z,19.42
2023-01-27T14:46:15.316Z,19.27
2023-01-27T14:49:11.782Z,14.50
2023-01-27T14:52:00.329Z,22.33
2023-01-27T14:54:48.395Z,15.45
2023-01-27T14:57:47.873Z,19.73
2023-01-27T15:00:21.484Z,26.30
2023-01-27T15:03:34.952Z,16.17
2023-01-27T15:06:29.798Z,21.42
2023-01-27T15:09:09.080Z,12.80
2023-01-27T15:12:00.295Z,22.10
2023-01-27T15:14:57.879Z,19.70
2023-01-27T15:20:26.977Z,20.10
2023-01-27T15:23:31.869Z,22.83
2023-01-27T15:26:02.693Z,17.15
2023-01-27T15:28:32.878Z,17.27
2023-01-27T15:31:15.016Z,13.98
2023-01-27T15:33:49.461Z,16.45
2023-01-27T15:36:32.239Z,16.80
2023-01-27T15:39:11.465Z,23.08
2023-01-27T15:42:01.479Z,24.77
2023-01-27T15:44:32.714Z,29.88
2023-01-27T15:47:14.831Z,28.42
2023-01-27T15:49:46.947Z,31.92
2023-01-27T15:52:53.752Z,28.58
2023-01-27T15:55:47.637Z,36.33
2023-01-27T15:58:42.687Z,12.32
2023-01-27T16:01:29.769Z,4.40
2023-01-27T16:06:35.743Z,3.10
2023-01-27T16:09:08.382Z,1.88
2023-01-27T16:11:35.380Z,2.72
2023-01-27T16:14:22.800Z,6.38
2023-01-27T16:16:52.678Z,2.95
2023-01-27T16:19:28.828Z,2.10
2023-01-27T16:22:01.602Z,2.83
2023-01-27T16:25:03.472Z,1.73
2023-01-27T16:28:05.882Z,2.55
2023-01-27T16:30:42.584Z,1.10
2023-01-27T16:33:26.808Z,1.00
2023-01-27T16:36:16.963Z,1.00
2023-01-27T16:38:45.768Z,1.30
2023-01-27T16:41:20.493Z,1.38
2023-01-27T16:44:19.159Z,1.10
2023-01-27T16:46:50.530Z,0.82
2023-01-27T16:49:24.324Z,0.77
2023-01-27T16:52:03.968Z,1.48
2023-01-27T16:54:45.649Z,1.35
2023-01-27T16:57:35.784Z,1.33
2023-01-27T17:00:20.238Z,0.43
2023-01-27T17:02:48.259Z,1.00
2023-01-27T17:05:17.570Z,1.67
2023-01-27T17:08:15.084Z,1.38
2023-01-27T17:13:33.585Z,1.08
2023-01-27T17:16:04.446Z,0.55
2023-01-27T17:18:51.680Z,0.93
2023-01-27T17:21:41.178Z,0.52
2023-01-27T17:24:16.407Z,2.58
2023-01-27T17:26:47.801Z,1.33
2023-01-27T17:29:20.759Z,1.83
2023-01-27T17:31:48.520Z,0.85
2023-01-27T17:34:19.579Z,1.13
2023-01-27T17:37:18.264Z,0.55
2023-01-27T17:39:46.176Z,0.73
2023-01-27T17:42:17.048Z,1.13
2023-01-27T17:44:45.316Z,0.60
2023-01-27T17:47:15.844Z,1.20
2023-01-27T17:49:44.088Z,0.60
2023-01-27T17:52:17.596Z,0.90
2023-01-27T17:54:46.997Z,0.65
2023-01-27T17:57:32.784Z,0.70
2023-01-27T18:00:09.831Z,1.00
2023-01-27T18:02:55.125Z,1.75
2023-01-27T18:05:26.313Z,0.65
2023-01-27T18:07:53.735Z,0.40
2023-01-27T18:10:26.611Z,2.85
2023-01-27T18:12:55.095Z,1.25
2023-01-27T18:15:37.393Z,0.60
2023-01-27T18:18:08.515Z,0.70
2023-01-27T18:20:36.503Z,0.90
2023-01-27T18:23:06.805Z,1.23
2023-01-27T18:25:33.788Z,0.85
2023-01-27T18:28:00.815Z,0.85
2023-01-27T18:30:27.724Z,0.85
2023-01-27T18:33:03.535Z,0.57
2023-01-27T18:35:32.851Z,0.90
2023-01-27T18:38:02.521Z,1.40
2023-01-27T18:40:35.488Z,0.77
2023-01-27T18:43:05.661Z,1.15
2023-01-27T18:45:32.632Z,0.52
2023-01-27T18:47:59.941Z,1.52
2023-01-27T18:50:28.110Z,1.50
2023-01-27T18:52:55.615Z,2.45
2023-01-27T18:55:30.361Z,0.75
2023-01-27T18:57:59.453Z,1.08
2023-01-27T19:00:40.601Z,0.98
2023-01-27T19:03:13.961Z,1.30
2023-01-27T19:05:41.057Z,1.27
2023-01-27T19:08:14.859Z,0.52
2023-01-27T19:10:41.977Z,1.15
2023-01-27T19:13:09.694Z,0.63
2023-01-27T19:15:48.453Z,0.60
2023-01-27T19:18:44.730Z,1.55
2023-01-27T19:21:13.995Z,1.40
2023-01-27T19:23:45.012Z,1.42
2023-01-27T19:26:17.806Z,1.38
2023-01-27T19:28:49.138Z,1.10
2023-01-27T19:31:16.310Z,3.22
2023-01-27T19:33:45.103Z,1.73
2023-01-27T19:36:25.432Z,1.20
2023-01-27T19:39:14.687Z,1.23
2023-01-27T19:41:42.226Z,0.55
2023-01-27T19:44:10.742Z,2.13
2023-01-27T19:46:39.733Z,0.52
2023-01-27T19:49:07.709Z,1.67
2023-01-27T19:51:34.601Z,1.17
2023-01-27T19:54:01.489Z,1.30
2023-01-27T19:56:30.836Z,0.60
2023-01-27T19:58:57.751Z,0.75
2023-01-27T20:01:25.689Z,1.30
2023-01-27T20:03:53.817Z,0.98
2023-01-27T20:06:28.764Z,0.70
2023-01-27T20:08:59.096Z,1.40
2023-01-27T20:11:33.938Z,0.90
2023-01-27T20:14:02.760Z,0.85
2023-01-27T20:16:30.512Z,0.57
2023-01-27T20:18:58.314Z,0.60
2023-01-27T20:21:25.513Z,1.38
2023-01-27T20:23:52.746Z,0.98
2023-01-27T20:26:22.376Z,1.02
2023-01-27T20:28:50.354Z,1.23
2023-01-27T20:31:22.659Z,1.52
2023-01-27T20:33:50.381Z,0.70
2023-01-27T20:36:23.924Z,0.80
2023-01-27T20:38:52.238Z,1.13
2023-01-27T20:41:22.070Z,1.10
2023-01-27T20:43:49.167Z,2.42
2023-01-27T20:46:18.193Z,0.90
2023-01-27T20:48:45.139Z,1.25
2023-01-27T20:51:15.425Z,1.13
2023-01-27T20:53:47.178Z,0.60
2023-01-27T20:56:19.379Z,1.42
2023-01-27T20:58:46.899Z,1.08
2023-01-27T21:01:16.542Z,0.85
2023-01-27T21:03:43.879Z,0.57
2023-01-27T21:06:12.549Z,0.85
2023-01-27T21:08:39.973Z,0.40
2023-01-27T21:11:10.999Z,1.15
2023-01-27T21:13:38.022Z,0.90
2023-01-27T21:16:05.191Z,1.13
2023-01-27T21:18:32.067Z,0.98
2023-01-27T21:21:04.163Z,0.85
2023-01-27T21:23:34.926Z,0.40
2023-01-27T21:26:09.261Z,5.32
2023-01-27T21:28:36.257Z,1.17
2023-01-27T21:31:08.091Z,1.58
2023-01-27T21:33:36.441Z,0.85
2023-01-27T21:36:04.844Z,1.88
2023-01-27T21:38:34.807Z,1.17
2023-01-27T21:41:11.085Z,0.77
2023-01-27T21:43:56.877Z,1.33
2023-01-27T21:46:24.012Z,1.23
2023-01-27T21:48:51.286Z,1.08
2023-01-27T21:51:18.194Z,1.40
2023-01-27T21:53:45.124Z,1.02
2023-01-27T21:56:12.119Z,0.75
2023-01-27T21:58:39.176Z,1.35
2023-01-27T22:01:07.821Z,1.20
2023-01-27T22:03:36.045Z,1.45
2023-01-27T22:06:10.026Z,0.85
2023-01-27T22:08:37.403Z,0.60
2023-01-27T22:11:05.770Z,0.80
2023-01-27T22:13:33.407Z,0.95
2023-01-27T22:16:01.575Z,1.02
2023-01-27T22:18:29.079Z,1.73
2023-01-27T22:20:56.448Z,1.13
2023-01-27T22:23:24.677Z,1.00
2023-01-27T22:25:52.749Z,0.75
2023-01-27T22:28:20.507Z,0.73
2023-01-27T22:30:47.421Z,0.70
2023-01-27T22:33:14.487Z,0.57
2023-01-27T22:35:41.427Z,3.17
2023-01-27T22:38:08.608Z,0.50
2023-01-27T22:40:35.606Z,0.30
2023-01-27T22:43:09.324Z,1.23
2023-01-27T22:45:40.144Z,0.90
2023-01-27T22:48:08.987Z,0.65
2023-01-27T22:50:36.950Z,0.77
2023-01-27T22:53:05.528Z,1.58
2023-01-27T22:55:32.831Z,0.50
2023-01-27T22:57:59.923Z,0.40
2023-01-27T23:00:27.044Z,0.77
2023-01-27T23:02:54.448Z,0.68
2023-01-27T23:05:21.435Z,0.40
2023-01-27T23:07:48.379Z,0.93
2023-01-27T23:10:16.006Z,0.60
2023-01-27T23:12:42.963Z,0.50
2023-01-27T23:15:10.326Z,0.65
2023-01-27T23:17:37.287Z,0.90
2023-01-27T23:20:04.672Z,0.95
2023-01-27T23:22:31.630Z,0.57
2023-01-27T23:24:58.523Z,0.70
2023-01-27T23:27:26.433Z,0.75
2023-01-27T23:29:53.548Z,0.40
2023-01-27T23:32:20.456Z,0.30
2023-01-27T23:34:48.335Z,0.88
2023-01-27T23:37:15.288Z,0.38
2023-01-27T23:39:46.018Z,1.63
2023-01-27T23:42:12.948Z,0.43
2023-01-27T23:44:39.912Z,0.52
2023-01-27T23:47:06.897Z,0.40
2023-01-27T23:49:33.845Z,0.40
2023-01-27T23:52:00.764Z,0.80
2023-01-27T23:54:27.679Z,0.95
2023-01-27T23:56:54.659Z,0.40
2023-01-27T23:59:21.566Z,0.22
